Flight Track Log - Related Links

Times and Time Zones

All times are in EDT time to prevent confusion due to time zone crossing. See the N631TS flight status page for this flight to view local times or setup timezone preferences in your user account.


Time Position Orientation Groundspeed Altitude Reporting Facility
EDT Latitude Longitude Course Direction KTS MPH feet Rate Location/Type
Wed 08:18:31 AM 45.5792 -94.1275 297° West 154 177 3,100  Level Minneapolis Center
Wed 08:19:33 AM 45.6025 -94.2050 293° West 209 241 5,000 1,951 Climbing Minneapolis Center
Wed 08:20:34 AM 45.6256 -94.2803 294° West 208 239 7,100 2,195 Climbing Minneapolis Center
Wed 08:21:00 AM 45.7558 -94.7033 298° West  Level FlightAware Approximate
Wed 08:21:36 AM 45.6564 -94.3694 296° West 209 241 9,500  Level Minneapolis Center
Wed 08:22:00 AM 45.7828 -94.8127 297° West  Level FlightAware Approximate
Wed 08:22:38 AM 45.6794 -94.4428 294° West 206 237 11,400  Level Minneapolis Center
Wed 08:23:00 AM 45.8201 -94.9188 297° West  Level FlightAware Approximate
Wed 08:23:39 AM 45.7033 -94.5161 295° West 204 235 13,100  Level Minneapolis Center
Wed 08:24:41 AM 45.7278 -94.5908 295° West 207 238 14,600 1,452 Climbing Minneapolis Center
Wed 08:25:43 AM 45.7525 -94.6669 295° West 210 242 16,100 1,415 Climbing Minneapolis Center
Wed 08:26:44 AM 45.7767 -94.7425 295° West 210 242 17,500 1,220 Climbing Minneapolis Center
Wed 08:27:46 AM 45.8019 -94.8186 295° West 212 244 18,600 1,258 Climbing Minneapolis Center
Wed 08:28:48 AM 45.8314 -94.9131 294° West 216 249 20,100 1,306 Climbing Minneapolis Center
Wed 08:29:50 AM 45.8567 -94.9914 295° West 217 250 21,300 1,073 Climbing Minneapolis Center
Wed 08:30:51 AM 45.8831 -95.0764 294° West 226 260 22,300 1,024 Climbing Minneapolis Center
Wed 08:31:53 AM 45.9100 -95.1622 294° West 235 270 23,400 919 Climbing Minneapolis Center
Wed 08:32:55 AM 45.9372 -95.2481 295° West 237 273 24,200 871 Climbing Minneapolis Center
Wed 08:33:57 AM 45.9664 -95.3375 295° West 247 284 25,200 919 Climbing Minneapolis Center
Wed 08:34:59 AM 45.9942 -95.4283 294° West 249 287 26,100 968 Climbing Minneapolis Center
Wed 08:36:01 AM 46.0289 -95.5375 295° West 251 289 27,200 919 Climbing Minneapolis Center
Wed 08:37:03 AM 46.0572 -95.6275 294° West 249 287 28,000 683 Climbing Minneapolis Center
Wed 08:38:04 AM 46.0850 -95.7197 294° West 251 289 28,600 634 Climbing Minneapolis Center
Wed 08:39:06 AM 46.1139 -95.8119 294° West 254 292 29,300 629 Climbing Minneapolis Center
Wed 08:40:08 AM 46.1442 -95.9044 295° West 255 293 29,900 629 Climbing Minneapolis Center
Wed 08:41:10 AM 46.1711 -95.9978 293° West 253 291 30,600 581 Climbing Minneapolis Center
Wed 08:42:12 AM 46.2039 -96.1033 294° West 257 296 31,100 484 Climbing Minneapolis Center
Wed 08:43:14 AM 46.2328 -96.1983 294° West 258 297 31,600 484 Climbing Minneapolis Center
Wed 08:44:16 AM 46.2628 -96.2925 295° West 259 298 32,100 435 Climbing Minneapolis Center
Wed 08:45:18 AM 46.2911 -96.3892 293° West 262 302 32,500 387 Climbing Minneapolis Center
Wed 08:46:20 AM 46.3200 -96.4853 294° West 263 303 32,900 439 Climbing Minneapolis Center
Wed 08:47:21 AM 46.3544 -96.5994 294° West 261 300 33,400 439 Climbing Minneapolis Center
Wed 08:48:23 AM 46.3833 -96.6956 294° West 261 300 33,800 290 Climbing Minneapolis Center
Wed 08:49:25 AM 46.4122 -96.7931 293° West 265 305 34,000 97 Climbing Minneapolis Center
Wed 08:50:27 AM 46.4417 -96.8928 293° West 270 311 34,000  Level Minneapolis Center
Wed 08:51:29 AM 46.4725 -96.9953 294° West 277 319 34,000  Level Minneapolis Center
Wed 08:52:43 AM 46.5103 -97.1211 294° West 285 328 34,000  Level Minneapolis Center
Wed 08:53:45 AM 46.5475 -97.2506 293° West 290 334 34,000  Level Minneapolis Center
Wed 08:54:59 AM 46.5858 -97.3797 293° West 292 336 34,000  Level Minneapolis Center
Wed 08:56:01 AM 46.6167 -97.4886 292° West 293 337 34,000  Level Minneapolis Center
Wed 08:57:03 AM 46.6483 -97.5972 293° West 294 338 34,000  Level Minneapolis Center
Wed 08:58:04 AM 46.6806 -97.7050 294° West 293 337 34,000  Level Minneapolis Center
Wed 08:59:06 AM 46.7119 -97.8186 292° West 300 345 34,000  Level Minneapolis Center
Wed 09:00:08 AM 46.7439 -97.9292 293° West 300 345 34,000  Level Minneapolis Center
Wed 09:01:10 AM 46.7814 -98.0622 292° West 298 343 34,000  Level Minneapolis Center
Wed 09:02:12 AM 46.8142 -98.1772 293° West 301 346 34,000  Level Minneapolis Center
Wed 09:03:14 AM 46.8453 -98.2872 292° West 298 343 34,000  Level Minneapolis Center
Wed 09:04:15 AM 46.8764 -98.3992 292° West 297 342 34,000  Level Minneapolis Center
Wed 09:05:17 AM 46.9075 -98.5108 292° West 297 342 34,000  Level Minneapolis Center
Wed 09:06:19 AM 46.9383 -98.6228 292° West 297 342 34,000  Level Minneapolis Center
Wed 09:07:21 AM 46.9694 -98.7347 292° West 297 342 34,000  Level Minneapolis Center
Wed 09:08:22 AM 47.0003 -98.8472 292° West 297 342 34,000  Level Minneapolis Center
Wed 09:09:24 AM 47.0378 -98.9828 292° West 298 343 34,000  Level Minneapolis Center
Wed 09:10:26 AM 47.0683 -99.0967 292° West 299 344 34,000  Level Minneapolis Center
Wed 09:11:28 AM 47.0978 -99.2092 291° West 298 343 34,000  Level Minneapolis Center
Wed 09:12:30 AM 47.1289 -99.3225 292° West 299 344 34,000  Level Minneapolis Center
Wed 09:13:31 AM 47.1594 -99.4358 292° West 298 343 34,000  Level Minneapolis Center
Wed 09:14:33 AM 47.1903 -99.5494 292° West 299 344 34,000  Level Minneapolis Center
Wed 09:15:35 AM 47.2197 -99.6628 291° West 299 344 34,000  Level Minneapolis Center
Wed 09:16:37 AM 47.2542 -99.8000 290° West 299 344 34,000  Level Minneapolis Center
Wed 09:17:39 AM 47.2856 -99.9144 292° West 299 344 34,000  Level Minneapolis Center
Wed 09:18:40 AM 47.3150 -100.0294 291° West 300 345 34,000  Level Minneapolis Center
Wed 09:19:42 AM 47.3444 -100.1450 291° West 301 346 34,000  Level Minneapolis Center
Wed 09:20:44 AM 47.3750 -100.2586 292° West 300 345 34,000  Level Minneapolis Center
Wed 09:21:46 AM 47.4050 -100.3725 291° West 299 344 34,000  Level Minneapolis Center
Wed 09:22:48 AM 47.4331 -100.4881 290° West 300 345 34,000  Level Minneapolis Center
Wed 09:23:49 AM 47.4717 -100.6283 292° West 305 351 34,000  Level Minneapolis Center
Wed 09:24:51 AM 47.5014 -100.7436 291° West 304 350 34,000  Level Minneapolis Center
Wed 09:25:53 AM 47.5303 -100.8572 291° West 299 344 34,000  Level Minneapolis Center
Wed 09:26:55 AM 47.5564 -100.9711 289° West 295 339 34,000 -132 Level Minneapolis Center
Wed 09:28:09 AM 47.5933 -101.1228 290° West 295 339 33,700 -397 Descending Minneapolis Center
Wed 09:29:11 AM 47.6225 -101.2417 290° West 304 350 33,100 -435 Descending Minneapolis Center
Wed 09:30:13 AM 47.6511 -101.3608 290° West 308 354 32,800 -387 Descending Minneapolis Center
Wed 09:31:15 AM 47.6764 -101.4808 287° West 308 354 32,300 -339 Descending Minneapolis Center
Wed 09:32:17 AM 47.7089 -101.6025 292° West 314 361 32,100 -145 Descending Minneapolis Center
Wed 09:33:19 AM 47.7361 -101.7214 289° West 310 357 32,000 -98 Descending Minneapolis Center
Wed 09:34:20 AM 47.7661 -101.8378 291° West 305 351 31,900 -634 Descending Minneapolis Center
Wed 09:35:22 AM 47.7969 -101.9822 288° West 308 354 30,700 -1,306 Descending Minneapolis Center
Wed 09:36:24 AM 47.8281 -102.1092 290° West 322 371 29,200 -1,645 Descending Minneapolis Center
Wed 09:37:26 AM 47.8558 -102.2294 289° West 315 362 27,300 -1,839 Descending Minneapolis Center
Wed 09:38:28 AM 47.8844 -102.3506 289° West 312 359 25,400 -1,742 Descending Minneapolis Center
Wed 09:39:30 AM 47.9117 -102.4706 289° West 310 357 23,700 -1,756 Descending Minneapolis Center
Wed 09:40:31 AM 47.9392 -102.5883 289° West 305 351 21,800 -2,000 Descending Minneapolis Center
Wed 09:41:33 AM 47.9706 -102.7297 288° West 303 349 19,600 -2,226 Descending Minneapolis Center
Wed 09:42:35 AM 47.9969 -102.8386 290° West 289 333 17,200 -2,371 Descending Minneapolis Center
Wed 09:43:37 AM 48.0211 -102.9489 288° West 283 326 14,700 -2,516 Descending Minneapolis Center
Wed 09:44:39 AM 48.0458 -103.0606 288° West 284 327 12,000 -2,817 Descending Minneapolis Center
Wed 09:45:32 AM 48.0714 -103.1661 290° West 279 321 9,300 -2,579 Descending Salt Lake Center
Wed 09:46:33 AM 48.0939 -103.2675 288° West 271 312 7,100 -2,000 Descending Salt Lake Center
Wed 09:47:35 AM 48.1156 -103.3614 289° West 258 297 5,200 -1,839 Descending Salt Lake Center

Login

Don't have an account? Register now (free) for customized features, flight alerts, and more!